Terminal Aerodrome Forecast
Issued by NWS Bismarck, ND

Home | Current Version | Previous Version | Text Only | Print | Product List | Glossary Off
Versions: 1 2 3 4 5 6 7 8 9 10 11 12 13

000
FTUS43 KBIS 220500
TAFISN
TAF
KISN 220521Z 2206/2306 21007KT P6SM SCT250
     FM221200 22012KT P6SM BKN120 OVC250
     FM230000 26008KT P6SM SCT050 BKN100=

USA.gov is the U.S. government's official web portal to all federal, state and local government web resources and services.